Time;durP1;ratioP1;P1;durP2;ratioP2;P2;SDS_P1;SDS_P2;PMS_P1;PMS_P2;Temp;Humidity;BMP_temperature;BMP_pressure;BME280_temperature;BME280_humidity;BME280_pressure;Samples;Min_cycle;Max_cycle;Signal;HPM_P1;HPM_P2
2023/09/09 00:00:30;;;;;;;16.55;14.75;;;23.60;74.70;;;;;;5021831;28;20085;-68
2023/09/09 00:02:55;;;;;;;17.55;14.48;;;23.60;74.70;;;;;;5022751;28;20033;-68
2023/09/09 00:05:21;;;;;;;17.13;14.40;;;23.50;74.70;;;;;;5025027;28;20037;-68
2023/09/09 00:07:47;;;;;;;17.58;14.55;;;23.50;74.70;;;;;;5022079;28;20060;-68
2023/09/09 00:10:12;;;;;;;16.30;13.60;;;23.50;74.70;;;;;;5024428;28;20042;-68
2023/09/09 00:12:38;;;;;;;18.65;14.23;;;23.50;74.70;;;;;;5027138;28;20060;-68
2023/09/09 00:15:05;;;;;;;15.70;13.63;;;23.50;74.80;;;;;;5025519;28;20029;-68
2023/09/09 00:17:31;;;;;;;16.08;13.80;;;23.50;74.80;;;;;;5052106;28;20022;-68
2023/09/09 00:19:57;;;;;;;17.08;14.30;;;23.40;74.80;;;;;;5022493;28;20044;-68
2023/09/09 00:22:22;;;;;;;15.68;13.35;;;23.40;74.90;;;;;;5022354;28;20105;-68
2023/09/09 00:24:48;;;;;;;17.90;14.43;;;23.40;74.90;;;;;;5021259;28;20092;-68
2023/09/09 00:27:14;;;;;;;16.20;13.52;;;23.40;74.90;;;;;;5023034;28;20033;-68
2023/09/09 00:29:40;;;;;;;16.20;13.30;;;23.40;74.90;;;;;;5024597;28;20041;-67
2023/09/09 00:32:05;;;;;;;16.75;13.45;;;23.30;74.90;;;;;;5027316;28;20026;-68
2023/09/09 00:34:34;;;;;;;16.25;13.77;;;23.30;74.90;;;;;;5030941;28;20124;-67
2023/09/09 00:36:59;;;;;;;19.52;14.57;;;23.30;75.00;;;;;;5025040;28;20025;-68
2023/09/09 00:39:25;;;;;;;17.83;14.27;;;23.30;75.00;;;;;;5030009;28;20030;-68
2023/09/09 00:41:51;;;;;;;15.43;13.15;;;23.30;75.00;;;;;;5029410;28;20027;-68
2023/09/09 00:44:18;;;;;;;15.82;13.38;;;23.20;75.00;;;;;;5027599;28;20037;-67
2023/09/09 00:46:46;;;;;;;14.70;13.05;;;23.20;75.00;;;;;;5020215;28;20352;-68
2023/09/09 00:49:12;;;;;;;16.25;13.57;;;23.20;75.10;;;;;;5027719;28;20041;-67
2023/09/09 00:51:38;;;;;;;15.98;13.45;;;23.20;75.00;;;;;;5033065;28;20094;-68
2023/09/09 00:54:05;;;;;;;16.13;12.85;;;23.20;75.10;;;;;;5027139;28;20500;-68
2023/09/09 00:56:33;;;;;;;16.52;12.43;;;23.20;75.10;;;;;;5006006;28;20439;-67
2023/09/09 00:58:58;;;;;;;16.98;13.20;;;23.20;75.10;;;;;;5027195;28;20029;-67
2023/09/09 01:01:24;;;;;;;16.80;13.25;;;23.20;75.00;;;;;;5025022;28;20431;-68
2023/09/09 01:03:53;;;;;;;15.75;13.50;;;23.20;75.10;;;;;;5010804;28;20034;-67
2023/09/09 01:06:21;;;;;;;15.80;14.05;;;23.10;75.10;;;;;;5026165;28;20107;-68
2023/09/09 01:08:47;;;;;;;15.43;12.18;;;23.10;75.10;;;;;;5030996;28;20402;-67
2023/09/09 01:11:14;;;;;;;15.23;13.15;;;23.10;75.10;;;;;;5022207;28;20478;-68
2023/09/09 01:13:40;;;;;;;13.82;12.32;;;23.10;75.20;;;;;;5023418;28;20022;-67
2023/09/09 01:16:07;;;;;;;15.32;13.30;;;23.10;75.20;;;;;;5021316;28;20032;-67
2023/09/09 01:18:34;;;;;;;14.00;12.43;;;23.00;75.20;;;;;;5018413;28;20030;-67
2023/09/09 01:21:12;;;;;;;15.95;12.18;;;23.00;75.20;;;;;;5008971;28;20065;-67
2023/09/09 01:23:38;;;;;;;14.77;12.40;;;23.00;75.20;;;;;;5019728;28;20033;-67
2023/09/09 01:26:04;;;;;;;16.50;12.70;;;23.00;75.20;;;;;;5015975;28;20044;-67
2023/09/09 01:28:30;;;;;;;15.38;12.57;;;22.90;75.20;;;;;;5019935;28;20518;-67
2023/09/09 01:30:56;;;;;;;16.00;12.57;;;22.90;75.30;;;;;;5027190;28;20034;-67
2023/09/09 01:33:21;;;;;;;22.42;11.35;;;22.90;75.30;;;;;;5023324;28;20123;-67
2023/09/09 01:35:47;;;;;;;14.50;12.15;;;22.90;75.30;;;;;;5024348;28;20029;-67
2023/09/09 01:38:13;;;;;;;14.55;12.38;;;22.90;75.40;;;;;;5023748;28;20026;-68
2023/09/09 01:40:39;;;;;;;14.35;12.07;;;22.90;75.40;;;;;;5026287;28;20036;-67
2023/09/09 01:43:08;;;;;;;14.48;12.02;;;22.80;75.40;;;;;;5029989;28;20116;-68
2023/09/09 01:45:35;;;;;;;15.80;12.35;;;22.80;75.40;;;;;;5022911;28;20034;-67
2023/09/09 01:48:01;;;;;;;18.20;12.50;;;22.80;75.40;;;;;;5021906;28;20038;-68
2023/09/09 01:50:28;;;;;;;14.73;12.35;;;22.80;75.40;;;;;;5027818;28;20394;-68
2023/09/09 01:52:55;;;;;;;13.70;12.30;;;22.80;75.40;;;;;;5020416;28;20056;-67
2023/09/09 01:55:20;;;;;;;17.58;12.38;;;22.80;75.50;;;;;;5018010;28;20041;-67
2023/09/09 01:57:46;;;;;;;15.27;12.10;;;22.80;75.50;;;;;;5025676;28;20454;-67
2023/09/09 02:00:13;;;;;;;15.13;11.68;;;22.70;75.50;;;;;;5044320;28;20045;-67
2023/09/09 02:02:38;;;;;;;14.95;12.65;;;22.70;75.50;;;;;;5022492;28;20033;-67
2023/09/09 02:05:04;;;;;;;14.43;11.57;;;22.70;75.50;;;;;;5019696;28;20176;-67
2023/09/09 02:07:30;;;;;;;15.02;11.75;;;22.60;75.50;;;;;;5007318;28;20458;-67
2023/09/09 02:09:56;;;;;;;13.70;12.05;;;22.70;75.50;;;;;;5010534;28;20033;-67
2023/09/09 02:12:22;;;;;;;13.80;11.80;;;22.70;76.20;;;;;;5014581;28;20175;-67
2023/09/09 02:14:48;;;;;;;13.38;11.20;;;22.60;75.50;;;;;;5004698;28;20120;-67
2023/09/09 02:17:15;;;;;;;12.60;11.20;;;22.60;75.60;;;;;;5004114;28;20172;-67
2023/09/09 02:19:40;;;;;;;16.23;11.68;;;22.60;75.60;;;;;;5023411;28;20522;-67
2023/09/09 02:22:06;;;;;;;14.95;13.00;;;22.60;75.60;;;;;;5030510;28;20462;-67
2023/09/09 02:24:32;;;;;;;12.93;11.50;;;22.60;75.60;;;;;;5024960;28;20235;-67
2023/09/09 02:26:59;;;;;;;15.88;11.43;;;22.50;75.60;;;;;;5037129;28;20120;-67
2023/09/09 02:29:24;;;;;;;16.23;12.63;;;22.50;75.70;;;;;;5019180;28;20507;-67
2023/09/09 02:31:50;;;;;;;15.05;11.88;;;22.50;75.70;;;;;;5020257;28;20109;-67
2023/09/09 02:34:16;;;;;;;14.35;11.93;;;22.50;75.80;;;;;;5025948;28;20666;-67
2023/09/09 02:37:05;;;;;;;13.90;12.40;;;22.50;75.70;;;;;;5030554;28;20025;-67
2023/09/09 02:39:31;;;;;;;13.45;11.70;;;22.50;75.80;;;;;;5019881;28;20029;-67
2023/09/09 02:41:56;;;;;;;14.57;12.07;;;22.40;75.80;;;;;;5024089;28;20029;-67
2023/09/09 02:44:24;;;;;;;14.77;12.13;;;22.40;75.80;;;;;;5024562;28;20470;-67
2023/09/09 02:46:50;;;;;;;15.30;11.52;;;22.40;75.80;;;;;;5029588;28;20112;-67
2023/09/09 02:49:16;;;;;;;13.10;11.63;;;22.40;75.80;;;;;;5023865;28;20113;-67
2023/09/09 02:51:41;;;;;;;15.63;12.43;;;22.40;75.80;;;;;;5023632;28;20021;-67
2023/09/09 02:54:07;;;;;;;14.60;11.90;;;22.40;75.90;;;;;;5021272;28;20105;-67
2023/09/09 02:56:33;;;;;;;12.77;11.38;;;22.40;75.80;;;;;;5015531;28;20032;-67
2023/09/09 02:58:58;;;;;;;15.98;12.40;;;22.30;75.80;;;;;;5028656;28;20017;-67
2023/09/09 03:01:25;;;;;;;16.05;11.60;;;22.30;75.80;;;;;;5018167;28;20033;-67
2023/09/09 03:03:51;;;;;;;13.68;11.95;;;22.30;75.90;;;;;;5021915;28;20443;-67
2023/09/09 03:06:17;;;;;;;14.82;12.45;;;22.30;75.90;;;;;;5023256;28;20506;-67
2023/09/09 03:08:44;;;;;;;16.38;12.80;;;22.30;75.90;;;;;;5022481;28;20125;-67
2023/09/09 03:11:10;;;;;;;14.50;12.25;;;22.30;75.90;;;;;;5020041;28;20044;-67
2023/09/09 03:13:35;;;;;;;15.95;12.13;;;22.30;75.90;;;;;;5019912;28;20022;-67
2023/09/09 03:16:03;;;;;;;13.80;12.30;;;22.20;75.90;;;;;;5027250;28;20082;-68
2023/09/09 03:18:29;;;;;;;14.60;12.35;;;22.20;76.00;;;;;;5026746;28;20036;-67
2023/09/09 03:20:54;;;;;;;14.23;12.73;;;22.20;76.00;;;;;;5009557;28;20366;-68
2023/09/09 03:23:20;;;;;;;16.98;13.20;;;22.20;76.00;;;;;;5014413;28;20343;-68
2023/09/09 03:25:46;;;;;;;15.30;12.35;;;22.20;76.00;;;;;;5023239;28;20052;-68
2023/09/09 03:28:12;;;;;;;14.88;12.32;;;22.20;76.00;;;;;;5027352;28;20447;-68
2023/09/09 03:30:58;;;;;;;13.73;12.32;;;22.20;76.00;;;;;;5025666;28;20037;-68
2023/09/09 03:33:27;;;;;;;16.83;13.32;;;22.10;75.90;;;;;;5020090;28;20120;-68
2023/09/09 03:35:53;;;;;;;17.60;13.45;;;22.10;76.00;;;;;;5025960;28;20532;-68
2023/09/09 03:38:19;;;;;;;16.17;13.15;;;22.10;76.00;;;;;;5027178;28;20026;-68
2023/09/09 03:40:45;;;;;;;15.43;12.82;;;22.10;76.00;;;;;;5021093;28;20208;-68
2023/09/09 03:43:12;;;;;;;15.55;12.57;;;22.10;76.10;;;;;;5027542;28;20364;-68
2023/09/09 03:45:38;;;;;;;15.02;12.80;;;22.10;76.00;;;;;;5024246;28;20021;-68
2023/09/09 03:48:04;;;;;;;16.85;13.25;;;22.10;76.10;;;;;;5026233;28;20116;-68
2023/09/09 03:50:32;;;;;;;15.15;13.10;;;22.10;76.10;;;;;;5027971;28;20034;-68
2023/09/09 03:52:59;;;;;;;15.07;12.88;;;22.10;76.10;;;;;;5021209;28;20013;-68
2023/09/09 03:55:25;;;;;;;15.63;12.75;;;22.00;76.10;;;;;;5023525;28;20022;-68
2023/09/09 03:57:52;;;;;;;14.25;12.75;;;22.10;76.10;;;;;;5009663;28;20108;-68
2023/09/09 04:00:18;;;;;;;15.27;12.85;;;22.10;76.20;;;;;;5016446;28;20025;-68
2023/09/09 04:02:45;;;;;;;14.73;12.65;;;22.00;76.10;;;;;;5019757;28;20125;-68
2023/09/09 04:05:12;;;;;;;14.88;12.52;;;22.00;76.10;;;;;;5030588;28;20128;-67
2023/09/09 04:07:43;;;;;;;16.17;13.13;;;22.00;76.10;;;;;;5025493;28;20037;-68
2023/09/09 04:10:09;;;;;;;15.55;13.20;;;22.00;76.10;;;;;;5026173;28;20366;-68
2023/09/09 04:12:38;;;;;;;14.93;13.23;;;22.00;76.20;;;;;;5030230;28;20040;-68
2023/09/09 04:15:05;;;;;;;17.95;13.98;;;22.00;76.20;;;;;;5024471;28;20044;-67
2023/09/09 04:17:31;;;;;;;14.25;12.65;;;22.00;76.90;;;;;;5021630;28;20466;-67
2023/09/09 04:19:57;;;;;;;14.80;13.20;;;21.90;76.20;;;;;;5023613;28;20033;-67
2023/09/09 04:22:23;;;;;;;16.67;13.60;;;21.90;76.20;;;;;;5008668;28;20060;-67
2023/09/09 04:24:48;;;;;;;16.05;13.60;;;21.90;76.20;;;;;;5020328;28;20477;-67
2023/09/09 04:27:14;;;;;;;15.93;13.32;;;21.90;76.20;;;;;;5024844;28;20030;-68
2023/09/09 04:29:41;;;;;;;17.35;13.40;;;21.90;76.20;;;;;;5026976;28;20025;-68
2023/09/09 04:32:06;;;;;;;15.98;12.80;;;21.90;76.20;;;;;;5023255;28;20021;-68
2023/09/09 04:34:32;;;;;;;15.10;12.75;;;21.90;76.30;;;;;;5003361;28;20107;-68
2023/09/09 04:36:58;;;;;;;16.42;13.57;;;21.90;76.30;;;;;;5022057;28;20034;-67
2023/09/09 04:39:23;;;;;;;16.13;13.63;;;21.90;76.30;;;;;;5025700;28;20068;-67
2023/09/09 04:41:49;;;;;;;16.67;13.93;;;21.90;76.40;;;;;;5016749;28;20021;-67
2023/09/09 04:44:15;;;;;;;15.00;13.35;;;21.90;76.40;;;;;;5024212;28;20022;-67
2023/09/09 04:46:41;;;;;;;18.55;15.77;;;21.90;76.50;;;;;;5017952;28;20088;-67
2023/09/09 04:49:08;;;;;;;17.60;15.55;;;21.80;76.50;;;;;;5016420;28;20022;-67
2023/09/09 04:51:34;;;;;;;18.98;15.93;;;21.80;76.60;;;;;;5014217;28;20036;-69
2023/09/09 04:54:01;;;;;;;20.17;16.70;;;21.80;76.70;;;;;;5014900;28;20021;-68
2023/09/09 04:56:27;;;;;;;19.80;17.15;;;21.90;76.80;;;;;;5022574;28;20033;-68
2023/09/09 04:58:53;;;;;;;21.48;19.17;;;21.80;76.80;;;;;;5021334;28;20506;-68
2023/09/09 05:01:19;;;;;;;24.50;20.13;;;21.90;77.00;;;;;;5023993;28;20099;-68
2023/09/09 05:03:44;;;;;;;23.27;19.83;;;21.90;77.10;;;;;;5028295;28;20053;-68
2023/09/09 05:06:10;;;;;;;24.13;20.75;;;21.90;77.20;;;;;;5025417;28;20455;-68
2023/09/09 05:08:36;;;;;;;24.73;21.48;;;21.80;77.20;;;;;;5025979;28;20525;-68
2023/09/09 05:11:02;;;;;;;30.75;25.10;;;21.80;77.30;;;;;;5021127;28;20030;-68
2023/09/09 05:13:30;;;;;;;26.83;24.00;;;21.80;77.30;;;;;;5006681;28;20018;-68
2023/09/09 05:15:58;;;;;;;31.17;27.77;;;21.80;77.40;;;;;;5026043;28;20053;-68
2023/09/09 05:18:24;;;;;;;35.38;30.35;;;21.80;77.50;;;;;;5029498;28;20473;-68
2023/09/09 05:20:50;;;;;;;36.33;32.50;;;21.80;77.60;;;;;;5029396;28;20033;-68
2023/09/09 05:23:17;;;;;;;35.75;31.50;;;21.90;77.80;;;;;;5023747;28;20362;-67
2023/09/09 05:25:42;;;;;;;36.10;32.13;;;21.90;77.90;;;;;;5026424;28;20052;-68
2023/09/09 05:28:08;;;;;;;36.15;32.15;;;21.90;78.00;;;;;;5021883;28;20072;-68
2023/09/09 05:30:40;;;;;;;36.90;32.38;;;21.90;78.10;;;;;;5026791;28;20124;-68
2023/09/09 05:33:06;;;;;;;39.60;32.65;;;21.90;78.20;;;;;;5020575;28;20018;-67
2023/09/09 05:35:32;;;;;;;40.47;34.17;;;21.90;78.30;;;;;;5022437;28;20041;-69
2023/09/09 05:37:58;;;;;;;38.85;33.05;;;21.90;78.50;;;;;;5028231;28;20091;-73
2023/09/09 05:40:23;;;;;;;40.58;34.50;;;22.00;78.60;;;;;;5030471;28;20086;-69
2023/09/09 05:42:49;;;;;;;38.30;34.42;;;22.00;78.70;;;;;;5028447;28;20029;-68
2023/09/09 05:45:15;;;;;;;37.00;32.80;;;22.00;78.80;;;;;;5031659;28;20167;-69
2023/09/09 05:47:42;;;;;;;37.47;33.15;;;22.00;78.80;;;;;;5022512;28;20069;-70
2023/09/09 05:50:10;;;;;;;36.55;32.72;;;22.00;78.90;;;;;;5026592;28;20044;-69
2023/09/09 05:52:36;;;;;;;38.45;34.25;;;22.00;78.90;;;;;;5018487;28;20442;-69
2023/09/09 05:55:02;;;;;;;37.63;33.60;;;22.00;79.00;;;;;;5019660;28;20017;-69
2023/09/09 05:57:28;;;;;;;39.13;34.92;;;22.00;79.10;;;;;;5004403;28;20049;-69
2023/09/09 05:59:55;;;;;;;38.90;34.72;;;22.00;79.20;;;;;;5023227;28;20068;-69
2023/09/09 06:02:21;;;;;;;37.67;33.70;;;22.10;79.20;;;;;;5025729;28;20053;-70
2023/09/09 06:04:47;;;;;;;38.13;33.83;;;22.10;79.20;;;;;;5008955;28;20033;-70
2023/09/09 06:07:12;;;;;;;37.72;33.83;;;22.00;79.80;;;;;;5025724;28;20025;-70
2023/09/09 06:09:38;;;;;;;37.70;33.72;;;22.10;79.20;;;;;;5027257;28;20022;-69
2023/09/09 06:12:04;;;;;;;37.28;33.30;;;22.10;79.30;;;;;;5029788;28;20517;-69
2023/09/09 06:14:31;;;;;;;36.45;32.65;;;22.10;79.20;;;;;;5023082;28;20113;-72
2023/09/09 06:16:57;;;;;;;36.50;32.67;;;22.10;79.10;;;;;;5030177;28;20045;-71
2023/09/09 06:19:23;;;;;;;33.53;29.80;;;22.10;79.10;;;;;;5003026;28;20021;-71
2023/09/09 06:21:50;;;;;;;33.20;29.63;;;22.20;79.10;;;;;;5027080;28;20017;-68
2023/09/09 06:24:15;;;;;;;34.45;30.88;;;22.20;79.00;;;;;;5028998;28;20025;-71
2023/09/09 06:26:43;;;;;;;33.92;30.17;;;22.10;79.00;;;;;;5029696;28;20026;-69
2023/09/09 06:29:09;;;;;;;36.42;32.70;;;22.20;79.00;;;;;;5022395;28;20124;-69
2023/09/09 06:31:35;;;;;;;34.13;30.60;;;22.20;79.00;;;;;;5014711;28;20034;-72
2023/09/09 06:34:01;;;;;;;34.15;30.52;;;22.30;78.80;;;;;;5029000;28;20032;-70
2023/09/09 06:36:27;;;;;;;34.50;30.85;;;22.40;78.40;;;;;;5010703;28;20541;-71
2023/09/09 06:38:53;;;;;;;34.17;30.08;;;22.70;77.70;;;;;;5052083;28;20026;-70
2023/09/09 06:41:18;;;;;;;35.55;31.90;;;22.90;77.20;;;;;;5012266;28;20056;-70
2023/09/09 06:43:44;;;;;;;34.35;30.77;;;22.80;76.90;;;;;;5027671;28;20017;-70
2023/09/09 06:46:10;;;;;;;33.78;30.20;;;22.80;77.00;;;;;;5020825;28;20845;-70
2023/09/09 06:48:36;;;;;;;32.75;29.30;;;22.90;77.10;;;;;;5020942;28;20515;-69
2023/09/09 06:51:02;;;;;;;33.53;29.95;;;22.80;77.00;;;;;;5024016;28;20407;-70
2023/09/09 06:53:28;;;;;;;34.33;30.67;;;22.80;77.10;;;;;;5028224;28;20343;-69
2023/09/09 06:55:54;;;;;;;33.75;30.13;;;22.70;77.20;;;;;;5027905;28;20025;-69
2023/09/09 06:58:20;;;;;;;33.78;30.27;;;22.70;77.30;;;;;;5027806;28;20478;-70
2023/09/09 07:00:50;;;;;;;33.45;29.92;;;22.60;77.30;;;;;;5018192;28;20112;-69
2023/09/09 07:03:16;;;;;;;33.38;29.92;;;22.60;77.30;;;;;;5028043;28;20478;-69
2023/09/09 07:05:42;;;;;;;33.22;29.48;;;22.60;77.40;;;;;;5024624;28;20080;-69
2023/09/09 07:08:08;;;;;;;36.15;32.30;;;22.60;77.40;;;;;;5027426;28;20053;-69
2023/09/09 07:10:34;;;;;;;35.22;31.58;;;22.60;77.40;;;;;;5021041;28;20523;-69
2023/09/09 07:13:00;;;;;;;34.72;30.95;;;22.60;77.50;;;;;;5035367;28;20056;-69
2023/09/09 07:15:26;;;;;;;39.90;35.60;;;22.60;77.60;;;;;;5035214;28;20033;-69
2023/09/09 07:17:51;;;;;;;39.13;35.00;;;22.60;77.50;;;;;;5035247;28;20029;-69
2023/09/09 07:20:17;;;;;;;40.97;36.55;;;22.70;77.50;;;;;;5033699;28;20037;-69
2023/09/09 07:22:43;;;;;;;41.13;36.40;;;22.70;77.30;;;;;;5034471;28;20033;-69
2023/09/09 07:25:09;;;;;;;41.95;37.33;;;22.70;77.10;;;;;;5034176;28;20029;-69
2023/09/09 07:27:35;;;;;;;48.20;39.50;;;22.80;77.10;;;;;;5017555;28;20029;-69
2023/09/09 07:30:00;;;;;;;46.83;38.78;;;22.90;77.10;;;;;;5033604;28;20026;-69
2023/09/09 07:32:26;;;;;;;48.42;40.35;;;22.90;77.00;;;;;;5034181;28;20119;-69
2023/09/09 07:34:52;;;;;;;49.88;41.17;;;23.00;77.00;;;;;;5033792;28;20116;-69
2023/09/09 07:37:18;;;;;;;50.40;41.20;;;23.10;77.00;;;;;;5032983;28;20056;-69
2023/09/09 07:39:50;;;;;;;47.25;39.50;;;23.10;77.10;;;;;;5010759;28;20025;-69
2023/09/09 07:42:16;;;;;;;49.55;39.90;;;23.20;77.10;;;;;;5034393;28;20028;-69
2023/09/09 07:44:43;;;;;;;46.00;37.88;;;23.30;77.00;;;;;;5026355;28;20523;-69
2023/09/09 07:47:08;;;;;;;48.47;41.38;;;23.40;77.00;;;;;;5033710;28;20029;-69
2023/09/09 07:49:35;;;;;;;49.92;40.35;;;23.30;76.90;;;;;;5033344;28;20075;-71
2023/09/09 07:52:04;;;;;;;58.47;45.28;;;23.30;76.90;;;;;;5030589;28;20081;-70
2023/09/09 07:54:30;;;;;;;53.85;41.45;;;23.40;77.10;;;;;;5013539;28;20418;-71
2023/09/09 07:56:58;;;;;;;52.65;41.38;;;23.40;77.20;;;;;;5029534;28;20029;-70
2023/09/09 07:59:26;;;;;;;56.33;44.70;;;23.40;77.30;;;;;;5024638;28;20032;-70
2023/09/09 08:01:52;;;;;;;53.50;42.80;;;23.40;77.40;;;;;;5016990;28;20029;-70
2023/09/09 08:04:18;;;;;;;57.05;43.10;;;23.30;77.50;;;;;;5023944;28;20040;-70
2023/09/09 08:06:46;;;;;;;57.13;44.22;;;23.30;77.50;;;;;;5042949;28;20065;-69
2023/09/09 08:09:12;;;;;;;54.83;44.25;;;23.40;77.50;;;;;;5029627;28;20116;-69
2023/09/09 08:11:37;;;;;;;58.53;44.38;;;23.50;77.40;;;;;;5032405;28;20045;-70
2023/09/09 08:14:03;;;;;;;54.08;43.58;;;23.60;77.20;;;;;;5032384;28;20021;-71
2023/09/09 08:16:30;;;;;;;57.40;44.30;;;23.80;76.70;;;;;;5029602;28;20343;-70
2023/09/09 08:18:56;;;;;;;51.38;43.33;;;24.10;76.20;;;;;;5021081;28;20095;-69
2023/09/09 08:21:22;;;;;;;53.75;43.38;;;24.30;75.70;;;;;;5032305;28;20026;-70
2023/09/09 08:23:48;;;;;;;51.90;41.50;;;24.50;75.10;;;;;;5032582;28;20041;-71
2023/09/09 08:26:13;;;;;;;50.45;41.53;;;24.70;74.50;;;;;;5013895;28;20026;-71
2023/09/09 08:28:40;;;;;;;50.58;43.08;;;24.90;73.90;;;;;;5030582;28;20469;-71
2023/09/09 08:31:05;;;;;;;52.28;44.05;;;25.10;73.40;;;;;;5014684;28;20421;-71
2023/09/09 08:33:31;;;;;;;48.28;40.08;;;25.20;72.90;;;;;;5028823;28;20109;-71
2023/09/09 08:36:00;;;;;;;49.50;38.53;;;25.30;72.70;;;;;;5034032;28;20119;-70
2023/09/09 08:38:26;;;;;;;43.28;37.50;;;25.50;72.40;;;;;;5010594;28;20399;-69
2023/09/09 08:41:34;;;;;;;48.58;40.15;;;25.70;72.10;;;;;;5012318;28;20029;-70
2023/09/09 08:44:03;;;;;;;46.15;37.88;;;25.90;71.60;;;;;;5033048;28;20180;-71
2023/09/09 08:46:29;;;;;;;44.85;37.72;;;26.00;71.30;;;;;;5016345;28;20466;-70
2023/09/09 08:48:59;;;;;;;45.78;37.03;;;26.10;70.90;;;;;;5035438;28;20034;-70
2023/09/09 08:51:56;;;;;;;44.13;34.95;;;26.20;70.60;;;;;;5037501;28;20116;-69
2023/09/09 08:54:22;;;;;;;48.38;40.75;;;26.30;70.30;;;;;;5031287;28;20038;-69
2023/09/09 08:56:48;;;;;;;45.58;36.60;;;26.40;70.20;;;;;;5036921;28;20040;-69
2023/09/09 08:59:15;;;;;;;42.42;35.75;;;26.40;70.00;;;;;;5035734;28;20033;-70
2023/09/09 09:01:41;;;;;;;44.22;36.63;;;26.50;69.90;;;;;;5036787;28;20034;-70
2023/09/09 09:04:07;;;;;;;39.90;35.53;;;26.60;69.60;;;;;;5024004;28;20107;-71
2023/09/09 09:06:34;;;;;;;45.85;39.28;;;26.70;69.40;;;;;;5027694;28;20478;-70
2023/09/09 09:09:00;;;;;;;39.85;34.28;;;26.80;69.10;;;;;;5036032;28;20017;-70
2023/09/09 09:11:25;;;;;;;38.28;32.45;;;27.00;69.00;;;;;;5029424;28;20453;-70
2023/09/09 09:13:55;;;;;;;41.67;35.65;;;27.10;68.80;;;;;;5037581;28;20053;-71
2023/09/09 09:16:21;;;;;;;43.47;35.80;;;27.20;68.40;;;;;;5030301;28;20425;-71
2023/09/09 09:18:47;;;;;;;38.20;31.45;;;27.30;68.10;;;;;;5038135;28;20029;-71
2023/09/09 09:21:12;;;;;;;39.08;32.78;;;27.30;67.80;;;;;;5030888;28;20034;-70
2023/09/09 09:23:46;;;;;;;40.17;33.80;;;27.40;67.80;;;;;;5025036;28;20037;-70
2023/09/09 09:26:29;;;;;;;44.08;37.10;;;27.50;67.50;;;;;;5035109;28;20084;-71
2023/09/09 09:28:55;;;;;;;39.55;34.45;;;27.60;67.10;;;;;;5022680;28;20466;-70
2023/09/09 09:31:25;;;;;;;37.42;31.23;;;27.70;67.10;;;;;;5034952;28;20121;-70
2023/09/09 09:33:52;;;;;;;39.10;33.90;;;27.80;66.90;;;;;;5025041;28;20339;-71
2023/09/09 09:36:21;;;;;;;40.15;32.30;;;27.80;66.80;;;;;;5032850;28;20109;-71
2023/09/09 09:38:51;;;;;;;36.17;29.90;;;27.90;66.50;;;;;;5033671;28;20413;-71
2023/09/09 09:41:17;;;;;;;35.25;29.40;;;28.10;66.60;;;;;;5034833;28;20072;-71
2023/09/09 09:43:48;;;;;;;34.15;28.95;;;28.20;66.20;;;;;;5036073;28;20044;-71
2023/09/09 09:46:14;;;;;;;;;;;28.30;65.70;;;;;;5036895;28;20044;-70
2023/09/09 09:48:40;;;;;;;33.42;27.65;;;28.50;65.70;;;;;;5027039;28;19909;-70
2023/09/09 09:51:06;;;;;;;35.22;29.73;;;28.50;65.30;;;;;;5026111;28;20106;-72
2023/09/09 09:53:35;;;;;;;35.97;29.65;;;28.60;65.00;;;;;;5034491;28;20064;-72
2023/09/09 09:56:02;;;;;;;35.83;31.05;;;28.70;64.90;;;;;;5035929;28;20026;-72
2023/09/09 09:58:33;;;;;;;31.55;25.15;;;28.70;64.90;;;;;;5026765;28;20026;-71
2023/09/09 10:01:01;;;;;;;26.92;23.95;;;28.70;64.90;;;;;;5033739;28;20064;-72
2023/09/09 10:03:40;;;;;;;30.38;25.63;;;28.80;64.80;;;;;;5028945;28;20116;-72
2023/09/09 10:06:07;;;;;;;31.40;25.27;;;28.90;64.50;;;;;;5034442;28;20104;-68
2023/09/09 10:08:36;;;;;;;30.67;24.88;;;29.10;64.40;;;;;;5028869;28;20043;-68
2023/09/09 10:11:03;;;;;;;27.13;23.27;;;29.10;64.70;;;;;;5029840;28;20057;-69
2023/09/09 10:14:07;;;;;;;29.80;24.20;;;29.20;64.00;;;;;;5024309;28;20033;-71
2023/09/09 10:16:36;;;;;;;26.58;20.13;;;29.30;63.70;;;;;;5018156;28;20072;-70
2023/09/09 10:19:04;;;;;;;25.98;22.83;;;29.40;63.50;;;;;;5034789;28;20369;-69
2023/09/09 10:21:33;;;;;;;25.27;20.35;;;29.50;63.10;;;;;;5048799;28;20037;-70
2023/09/09 10:24:00;;;;;;;23.48;19.55;;;29.60;62.90;;;;;;5035171;28;20040;-70
2023/09/09 10:26:27;;;;;;;26.15;22.30;;;29.70;62.90;;;;;;5028683;28;20025;-70
2023/09/09 10:28:54;;;;;;;26.13;21.65;;;29.70;62.60;;;;;;5029354;28;20435;-70
2023/09/09 10:31:20;;;;;;;24.80;20.83;;;29.70;62.30;;;;;;5022747;28;20037;-70
2023/09/09 10:33:47;;;;;;;21.30;18.40;;;29.80;62.10;;;;;;5025736;28;20466;-70
2023/09/09 10:36:14;;;;;;;22.55;19.17;;;29.90;62.10;;;;;;5024333;28;20368;-70
2023/09/09 10:38:40;;;;;;;21.58;18.55;;;29.90;61.80;;;;;;5025087;28;20113;-70
2023/09/09 10:41:08;;;;;;;21.70;18.25;;;30.00;61.70;;;;;;5025233;28;20028;-70
2023/09/09 10:43:33;;;;;;;21.67;18.13;;;30.00;61.30;;;;;;5025421;28;20030;-70
2023/09/09 10:45:59;;;;;;;21.27;19.00;;;30.00;61.10;;;;;;5027166;28;20040;-70
2023/09/09 10:48:27;;;;;;;17.65;15.27;;;30.00;60.80;;;;;;5027669;28;20033;-70
2023/09/09 10:50:53;;;;;;;23.48;18.63;;;30.10;61.00;;;;;;5016939;28;20068;-70
2023/09/09 10:53:29;;;;;;;20.02;17.92;;;30.10;60.80;;;;;;5018821;28;20435;-70
2023/09/09 10:55:55;;;;;;;17.90;15.40;;;30.10;60.50;;;;;;5020943;28;20026;-70
2023/09/09 10:58:30;;;;;;;17.33;14.38;;;30.20;60.60;;;;;;5020987;28;20032;-70
2023/09/09 11:00:57;;;;;;;20.73;15.00;;;30.20;60.40;;;;;;5014340;28;20458;-70
2023/09/09 11:03:27;;;;;;;15.45;13.05;;;30.20;60.20;;;;;;5021833;28;20032;-70
2023/09/09 11:05:57;;;;;;;18.45;16.40;;;30.30;60.10;;;;;;5025612;28;20055;-70
2023/09/09 11:08:37;;;;;;;15.75;13.00;;;30.30;59.80;;;;;;5023799;28;20082;-70
2023/09/09 11:11:08;;;;;;;18.20;14.17;;;30.40;59.80;;;;;;5026151;28;20045;-70
2023/09/09 11:13:50;;;;;;;18.10;12.68;;;30.40;59.70;;;;;;5026303;28;20033;-70
2023/09/09 11:16:43;;;;;;;14.88;11.57;;;30.40;59.60;;;;;;5024199;28;20022;-70
2023/09/09 11:19:11;;;;;;;14.88;11.75;;;30.50;59.30;;;;;;5028284;28;20044;-70
2023/09/09 11:21:47;;;;;;;14.73;11.20;;;30.50;59.10;;;;;;5025539;28;20406;-70
2023/09/09 11:24:13;;;;;;;14.93;10.90;;;30.40;58.70;;;;;;5026749;28;20025;-70
2023/09/09 11:26:42;;;;;;;17.45;13.05;;;30.50;58.70;;;;;;5027597;28;20026;-70
2023/09/09 11:29:08;;;;;;;14.70;11.82;;;30.50;58.50;;;;;;5026831;28;20026;-70
2023/09/09 11:31:34;;;;;;;13.73;10.88;;;30.50;58.40;;;;;;5027714;28;20087;-70
2023/09/09 11:34:00;;;;;;;14.55;10.98;;;30.50;58.30;;;;;;5010376;28;20029;-70
2023/09/09 11:36:28;;;;;;;11.77;9.68;;;30.50;58.20;;;;;;5031189;28;20059;-70
2023/09/09 11:38:58;;;;;;;10.63;9.02;;;30.50;58.10;;;;;;5026813;28;20028;-70
2023/09/09 11:41:25;;;;;;;13.60;10.75;;;30.60;57.90;;;;;;5028044;28;20025;-70
2023/09/09 11:44:01;;;;;;;15.02;9.50;;;30.60;57.50;;;;;;5027681;28;20363;-70
2023/09/09 11:46:30;;;;;;;10.63;8.57;;;30.60;57.30;;;;;;5027001;28;20259;-71
2023/09/09 11:48:55;;;;;;;10.90;8.10;;;30.60;57.10;;;;;;5025898;28;20397;-70
2023/09/09 11:51:21;;;;;;;12.15;9.00;;;30.60;56.90;;;;;;5023206;28;20082;-70
2023/09/09 11:53:48;;;;;;;10.73;8.30;;;30.60;56.70;;;;;;5025307;28;20079;-70
2023/09/09 11:56:14;;;;;;;11.90;8.65;;;30.60;56.80;;;;;;5027049;28;20166;-70
2023/09/09 11:58:43;;;;;;;11.10;8.73;;;30.50;56.80;;;;;;5020407;28;20180;-70
2023/09/09 12:01:10;;;;;;;9.95;7.72;;;30.50;56.60;;;;;;5028585;28;20022;-71
2023/09/09 12:03:36;;;;;;;9.70;7.43;;;30.50;56.50;;;;;;5022813;28;20072;-70
2023/09/09 12:06:05;;;;;;;10.70;7.70;;;30.50;57.00;;;;;;5028847;28;20114;-70
2023/09/09 12:08:31;;;;;;;9.88;7.97;;;30.50;56.20;;;;;;5026684;28;20022;-70
2023/09/09 12:10:58;;;;;;;9.82;7.70;;;30.50;55.90;;;;;;5026621;28;20113;-70
2023/09/09 12:13:24;;;;;;;9.50;6.97;;;30.40;55.70;;;;;;5029332;28;20072;-70
2023/09/09 12:15:51;;;;;;;9.65;6.90;;;30.40;55.90;;;;;;5021528;28;20068;-70
2023/09/09 12:18:17;;;;;;;9.60;6.63;;;30.40;55.90;;;;;;5024221;28;20087;-70
2023/09/09 12:21:09;;;;;;;8.65;6.63;;;30.30;55.60;;;;;;5027256;28;20699;-70
2023/09/09 12:23:40;;;;;;;8.15;5.15;;;30.30;55.20;;;;;;5026630;28;20087;-70
2023/09/09 12:26:17;;;;;;;9.23;5.28;;;30.30;55.00;;;;;;5027149;28;20193;-70
2023/09/09 12:28:46;;;;;;;7.53;4.70;;;30.30;54.00;;;;;;5026959;28;20038;-71